sim
Sign-in with your pilot id or email,
or register
Callsign
Passwort

Schedule Details

Flight Number: EWG5708 (1)
Departure: Munich Airport (EDDM) at 16:40
Arrival: Pristina Adem Jashari International Airport (BKPR) at 18:35
Route: Eurowings Passenger Schedule. Enter filed route here before submitting Pirep.

Weather Information
Getting current METAR information for EDDM 270920Z 20008KT 150V250 9999 FEW035 12/04 Q1005 NOSIG
Getting current METAR information for BKPR 270930Z 15011KT 9999 BKN040 17/05 Q1011 NOSIG

Schedule Frequency

Route Map